sensor_id;sensor_type;location;lat;lon;timestamp;P1;durP1;ratioP1;P2;durP2;ratioP2
52047;SDS011;46904;49.438;8.752;2022-10-31T00:00:30;5.15;;;2.30;;
52047;SDS011;46904;49.438;8.752;2022-10-31T00:03:20;3.80;;;2.45;;
52047;SDS011;46904;49.438;8.752;2022-10-31T00:06:11;3.50;;;2.20;;
52047;SDS011;46904;49.438;8.752;2022-10-31T00:09:02;4.03;;;2.45;;
52047;SDS011;46904;49.438;8.752;2022-10-31T00:11:53;5.15;;;2.22;;
52047;SDS011;46904;49.438;8.752;2022-10-31T00:14:44;6.53;;;2.30;;
52047;SDS011;46904;49.438;8.752;2022-10-31T00:17:35;4.05;;;2.50;;
52047;SDS011;46904;49.438;8.752;2022-10-31T00:20:25;3.65;;;2.75;;
52047;SDS011;46904;49.438;8.752;2022-10-31T00:23:15;4.53;;;3.00;;
52047;SDS011;46904;49.438;8.752;2022-10-31T00:26:05;6.25;;;3.80;;
52047;SDS011;46904;49.438;8.752;2022-10-31T00:28:57;5.72;;;3.30;;
52047;SDS011;46904;49.438;8.752;2022-10-31T00:31:47;10.55;;;4.03;;
52047;SDS011;46904;49.438;8.752;2022-10-31T00:34:37;8.27;;;3.60;;
52047;SDS011;46904;49.438;8.752;2022-10-31T00:37:27;6.53;;;3.35;;
52047;SDS011;46904;49.438;8.752;2022-10-31T00:40:17;5.88;;;3.25;;
52047;SDS011;46904;49.438;8.752;2022-10-31T00:43:08;7.28;;;3.42;;
52047;SDS011;46904;49.438;8.752;2022-10-31T00:45:58;5.30;;;2.53;;
52047;SDS011;46904;49.438;8.752;2022-10-31T00:48:49;8.30;;;2.67;;
52047;SDS011;46904;49.438;8.752;2022-10-31T00:51:40;3.25;;;1.92;;
52047;SDS011;46904;49.438;8.752;2022-10-31T00:54:31;5.63;;;2.85;;
52047;SDS011;46904;49.438;8.752;2022-10-31T00:57:21;4.28;;;2.40;;
52047;SDS011;46904;49.438;8.752;2022-10-31T01:00:13;4.95;;;2.38;;
52047;SDS011;46904;49.438;8.752;2022-10-31T01:03:03;5.50;;;2.45;;
52047;SDS011;46904;49.438;8.752;2022-10-31T01:06:04;8.43;;;2.88;;
52047;SDS011;46904;49.438;8.752;2022-10-31T01:08:54;4.82;;;2.53;;
52047;SDS011;46904;49.438;8.752;2022-10-31T01:11:45;8.95;;;2.78;;
52047;SDS011;46904;49.438;8.752;2022-10-31T01:14:35;4.43;;;2.70;;
52047;SDS011;46904;49.438;8.752;2022-10-31T01:17:26;5.55;;;3.65;;
52047;SDS011;46904;49.438;8.752;2022-10-31T01:20:17;5.80;;;2.90;;
52047;SDS011;46904;49.438;8.752;2022-10-31T01:23:07;6.35;;;2.80;;
52047;SDS011;46904;49.438;8.752;2022-10-31T01:28:56;4.68;;;2.60;;
52047;SDS011;46904;49.438;8.752;2022-10-31T01:31:46;5.32;;;2.00;;
52047;SDS011;46904;49.438;8.752;2022-10-31T01:34:36;5.85;;;2.55;;
52047;SDS011;46904;49.438;8.752;2022-10-31T01:37:26;5.10;;;1.92;;
52047;SDS011;46904;49.438;8.752;2022-10-31T01:40:17;5.38;;;2.15;;
52047;SDS011;46904;49.438;8.752;2022-10-31T01:43:14;4.00;;;2.38;;
52047;SDS011;46904;49.438;8.752;2022-10-31T01:46:04;4.07;;;2.22;;
52047;SDS011;46904;49.438;8.752;2022-10-31T01:48:54;3.70;;;2.40;;
52047;SDS011;46904;49.438;8.752;2022-10-31T01:51:47;5.97;;;2.20;;
52047;SDS011;46904;49.438;8.752;2022-10-31T01:54:43;3.78;;;1.92;;
52047;SDS011;46904;49.438;8.752;2022-10-31T01:57:36;4.10;;;2.42;;
52047;SDS011;46904;49.438;8.752;2022-10-31T02:00:27;6.53;;;2.65;;
52047;SDS011;46904;49.438;8.752;2022-10-31T02:03:17;9.25;;;2.50;;
52047;SDS011;46904;49.438;8.752;2022-10-31T02:06:10;5.65;;;2.50;;
52047;SDS011;46904;49.438;8.752;2022-10-31T02:09:05;5.90;;;2.70;;
52047;SDS011;46904;49.438;8.752;2022-10-31T02:11:56;4.75;;;2.10;;
52047;SDS011;46904;49.438;8.752;2022-10-31T02:14:47;4.30;;;2.30;;
52047;SDS011;46904;49.438;8.752;2022-10-31T02:17:38;5.25;;;2.33;;
52047;SDS011;46904;49.438;8.752;2022-10-31T02:20:32;4.72;;;2.50;;
52047;SDS011;46904;49.438;8.752;2022-10-31T02:32:54;6.63;;;2.60;;
52047;SDS011;46904;49.438;8.752;2022-10-31T02:38:51;5.20;;;2.80;;
52047;SDS011;46904;49.438;8.752;2022-10-31T02:44:48;3.33;;;2.47;;
52047;SDS011;46904;49.438;8.752;2022-10-31T02:47:40;6.15;;;2.47;;
52047;SDS011;46904;49.438;8.752;2022-10-31T02:50:32;2.95;;;2.40;;
52047;SDS011;46904;49.438;8.752;2022-10-31T02:53:23;5.35;;;2.45;;
52047;SDS011;46904;49.438;8.752;2022-10-31T02:56:14;4.32;;;2.50;;
52047;SDS011;46904;49.438;8.752;2022-10-31T02:59:05;5.43;;;2.60;;
52047;SDS011;46904;49.438;8.752;2022-10-31T03:02:03;3.88;;;2.40;;
52047;SDS011;46904;49.438;8.752;2022-10-31T03:05:43;4.38;;;2.35;;
52047;SDS011;46904;49.438;8.752;2022-10-31T03:08:13;3.55;;;2.42;;
52047;SDS011;46904;49.438;8.752;2022-10-31T03:11:06;5.90;;;2.60;;
52047;SDS011;46904;49.438;8.752;2022-10-31T03:14:04;3.92;;;2.78;;
52047;SDS011;46904;49.438;8.752;2022-10-31T03:16:59;7.05;;;2.47;;
52047;SDS011;46904;49.438;8.752;2022-10-31T03:19:52;4.72;;;2.67;;
52047;SDS011;46904;49.438;8.752;2022-10-31T03:22:45;5.65;;;2.85;;
52047;SDS011;46904;49.438;8.752;2022-10-31T03:25:36;7.90;;;2.38;;
52047;SDS011;46904;49.438;8.752;2022-10-31T03:28:28;4.25;;;2.40;;
52047;SDS011;46904;49.438;8.752;2022-10-31T03:31:20;7.72;;;3.40;;
52047;SDS011;46904;49.438;8.752;2022-10-31T03:34:13;4.25;;;2.20;;
52047;SDS011;46904;49.438;8.752;2022-10-31T03:37:06;4.75;;;2.45;;
52047;SDS011;46904;49.438;8.752;2022-10-31T03:39:58;3.83;;;2.47;;
52047;SDS011;46904;49.438;8.752;2022-10-31T03:42:57;5.38;;;2.58;;
52047;SDS011;46904;49.438;8.752;2022-10-31T03:45:50;6.00;;;2.88;;
52047;SDS011;46904;49.438;8.752;2022-10-31T03:48:40;4.85;;;2.80;;
52047;SDS011;46904;49.438;8.752;2022-10-31T04:00:14;4.38;;;2.10;;
52047;SDS011;46904;49.438;8.752;2022-10-31T04:03:11;2.88;;;2.33;;
52047;SDS011;46904;49.438;8.752;2022-10-31T04:06:04;4.20;;;2.20;;
52047;SDS011;46904;49.438;8.752;2022-10-31T04:08:56;3.88;;;1.92;;
52047;SDS011;46904;49.438;8.752;2022-10-31T04:11:48;4.20;;;2.30;;
52047;SDS011;46904;49.438;8.752;2022-10-31T04:14:41;5.45;;;2.33;;
52047;SDS011;46904;49.438;8.752;2022-10-31T04:17:33;4.55;;;2.28;;
52047;SDS011;46904;49.438;8.752;2022-10-31T04:23:25;4.63;;;2.22;;
52047;SDS011;46904;49.438;8.752;2022-10-31T04:26:16;4.40;;;2.53;;
52047;SDS011;46904;49.438;8.752;2022-10-31T04:29:06;4.45;;;2.30;;
52047;SDS011;46904;49.438;8.752;2022-10-31T04:31:58;5.80;;;2.17;;
52047;SDS011;46904;49.438;8.752;2022-10-31T04:34:48;8.55;;;2.70;;
52047;SDS011;46904;49.438;8.752;2022-10-31T04:37:38;5.93;;;2.53;;
52047;SDS011;46904;49.438;8.752;2022-10-31T04:40:29;5.68;;;2.00;;
52047;SDS011;46904;49.438;8.752;2022-10-31T04:43:20;4.05;;;2.25;;
52047;SDS011;46904;49.438;8.752;2022-10-31T04:46:10;5.38;;;2.67;;
52047;SDS011;46904;49.438;8.752;2022-10-31T04:49:00;10.05;;;2.45;;
52047;SDS011;46904;49.438;8.752;2022-10-31T04:51:51;6.80;;;2.75;;
52047;SDS011;46904;49.438;8.752;2022-10-31T04:54:41;5.43;;;2.05;;
52047;SDS011;46904;49.438;8.752;2022-10-31T04:57:39;4.22;;;2.33;;
52047;SDS011;46904;49.438;8.752;2022-10-31T05:00:30;4.38;;;2.13;;
52047;SDS011;46904;49.438;8.752;2022-10-31T05:03:21;3.58;;;2.50;;
52047;SDS011;46904;49.438;8.752;2022-10-31T05:06:12;4.05;;;2.45;;
52047;SDS011;46904;49.438;8.752;2022-10-31T05:09:03;3.63;;;2.55;;
52047;SDS011;46904;49.438;8.752;2022-10-31T05:11:54;6.97;;;2.58;;
52047;SDS011;46904;49.438;8.752;2022-10-31T05:14:45;4.47;;;2.42;;
52047;SDS011;46904;49.438;8.752;2022-10-31T05:17:35;4.03;;;2.40;;
52047;SDS011;46904;49.438;8.752;2022-10-31T05:20:27;4.85;;;2.35;;
52047;SDS011;46904;49.438;8.752;2022-10-31T05:23:17;3.40;;;2.50;;
52047;SDS011;46904;49.438;8.752;2022-10-31T05:26:08;3.03;;;2.28;;
52047;SDS011;46904;49.438;8.752;2022-10-31T05:28:58;4.60;;;2.20;;
52047;SDS011;46904;49.438;8.752;2022-10-31T05:31:49;10.90;;;2.28;;
52047;SDS011;46904;49.438;8.752;2022-10-31T05:34:39;4.53;;;2.33;;
52047;SDS011;46904;49.438;8.752;2022-10-31T05:37:29;2.88;;;2.28;;
52047;SDS011;46904;49.438;8.752;2022-10-31T05:40:21;5.28;;;2.28;;
52047;SDS011;46904;49.438;8.752;2022-10-31T05:43:12;4.65;;;2.30;;
52047;SDS011;46904;49.438;8.752;2022-10-31T05:46:03;4.75;;;2.80;;
52047;SDS011;46904;49.438;8.752;2022-10-31T05:48:53;3.88;;;2.40;;
52047;SDS011;46904;49.438;8.752;2022-10-31T05:51:43;5.53;;;3.35;;
52047;SDS011;46904;49.438;8.752;2022-10-31T05:54:34;3.63;;;2.17;;
52047;SDS011;46904;49.438;8.752;2022-10-31T05:57:25;4.80;;;2.45;;
52047;SDS011;46904;49.438;8.752;2022-10-31T06:00:16;5.88;;;2.35;;
52047;SDS011;46904;49.438;8.752;2022-10-31T06:03:07;3.47;;;2.35;;
52047;SDS011;46904;49.438;8.752;2022-10-31T06:05:58;4.88;;;2.60;;
52047;SDS011;46904;49.438;8.752;2022-10-31T06:08:48;4.70;;;2.42;;
52047;SDS011;46904;49.438;8.752;2022-10-31T06:11:38;3.60;;;2.60;;
52047;SDS011;46904;49.438;8.752;2022-10-31T06:14:29;5.45;;;3.08;;
52047;SDS011;46904;49.438;8.752;2022-10-31T06:17:19;4.10;;;2.38;;
52047;SDS011;46904;49.438;8.752;2022-10-31T06:20:10;7.53;;;2.70;;
52047;SDS011;46904;49.438;8.752;2022-10-31T06:23:00;6.05;;;2.67;;
52047;SDS011;46904;49.438;8.752;2022-10-31T06:25:51;4.72;;;2.45;;
52047;SDS011;46904;49.438;8.752;2022-10-31T06:28:42;3.10;;;2.35;;
52047;SDS011;46904;49.438;8.752;2022-10-31T06:31:32;4.93;;;2.53;;
52047;SDS011;46904;49.438;8.752;2022-10-31T06:34:23;3.90;;;2.42;;
52047;SDS011;46904;49.438;8.752;2022-10-31T06:37:13;6.28;;;2.58;;
52047;SDS011;46904;49.438;8.752;2022-10-31T06:40:04;7.28;;;2.45;;
52047;SDS011;46904;49.438;8.752;2022-10-31T06:43:00;5.63;;;2.63;;
52047;SDS011;46904;49.438;8.752;2022-10-31T06:45:51;2.78;;;2.10;;
52047;SDS011;46904;49.438;8.752;2022-10-31T06:48:42;4.75;;;2.35;;
52047;SDS011;46904;49.438;8.752;2022-10-31T06:51:33;5.05;;;2.20;;
52047;SDS011;46904;49.438;8.752;2022-10-31T06:54:23;5.88;;;3.55;;
52047;SDS011;46904;49.438;8.752;2022-10-31T06:57:13;3.88;;;2.45;;
52047;SDS011;46904;49.438;8.752;2022-10-31T07:00:04;5.38;;;2.55;;
52047;SDS011;46904;49.438;8.752;2022-10-31T07:05:47;5.70;;;3.42;;
52047;SDS011;46904;49.438;8.752;2022-10-31T07:08:37;8.93;;;3.10;;
52047;SDS011;46904;49.438;8.752;2022-10-31T07:11:28;4.78;;;2.95;;
52047;SDS011;46904;49.438;8.752;2022-10-31T07:14:19;4.10;;;2.53;;
52047;SDS011;46904;49.438;8.752;2022-10-31T07:17:10;6.25;;;2.78;;
52047;SDS011;46904;49.438;8.752;2022-10-31T07:20:01;4.13;;;2.72;;
52047;SDS011;46904;49.438;8.752;2022-10-31T07:22:51;5.47;;;3.30;;
52047;SDS011;46904;49.438;8.752;2022-10-31T07:25:42;6.03;;;2.78;;
52047;SDS011;46904;49.438;8.752;2022-10-31T07:28:33;4.32;;;2.40;;
52047;SDS011;46904;49.438;8.752;2022-10-31T07:31:24;7.32;;;3.08;;
52047;SDS011;46904;49.438;8.752;2022-10-31T07:34:14;4.55;;;3.05;;
52047;SDS011;46904;49.438;8.752;2022-10-31T07:37:04;4.80;;;3.17;;
52047;SDS011;46904;49.438;8.752;2022-10-31T07:39:55;5.75;;;2.75;;
52047;SDS011;46904;49.438;8.752;2022-10-31T07:42:46;6.90;;;2.70;;
52047;SDS011;46904;49.438;8.752;2022-10-31T07:45:36;4.40;;;3.03;;
52047;SDS011;46904;49.438;8.752;2022-10-31T07:48:27;5.70;;;3.63;;
52047;SDS011;46904;49.438;8.752;2022-10-31T07:51:17;4.35;;;3.45;;
52047;SDS011;46904;49.438;8.752;2022-10-31T07:54:07;5.13;;;2.88;;
52047;SDS011;46904;49.438;8.752;2022-10-31T07:56:57;7.32;;;3.80;;
52047;SDS011;46904;49.438;8.752;2022-10-31T07:59:48;4.57;;;3.80;;
52047;SDS011;46904;49.438;8.752;2022-10-31T08:02:39;6.95;;;3.78;;
52047;SDS011;46904;49.438;8.752;2022-10-31T08:05:29;7.30;;;4.13;;
52047;SDS011;46904;49.438;8.752;2022-10-31T08:08:20;4.78;;;2.90;;
52047;SDS011;46904;49.438;8.752;2022-10-31T08:11:10;4.68;;;3.28;;
52047;SDS011;46904;49.438;8.752;2022-10-31T08:14:02;8.82;;;3.63;;
52047;SDS011;46904;49.438;8.752;2022-10-31T08:16:53;8.63;;;3.50;;
52047;SDS011;46904;49.438;8.752;2022-10-31T08:19:43;5.28;;;3.25;;
52047;SDS011;46904;49.438;8.752;2022-10-31T08:22:34;5.93;;;3.20;;
52047;SDS011;46904;49.438;8.752;2022-10-31T08:25:25;7.00;;;3.88;;
52047;SDS011;46904;49.438;8.752;2022-10-31T08:28:16;5.43;;;3.78;;
52047;SDS011;46904;49.438;8.752;2022-10-31T08:31:06;5.07;;;3.40;;
52047;SDS011;46904;49.438;8.752;2022-10-31T08:33:57;4.88;;;3.78;;
52047;SDS011;46904;49.438;8.752;2022-10-31T08:36:47;8.90;;;3.25;;
52047;SDS011;46904;49.438;8.752;2022-10-31T08:39:37;4.25;;;3.22;;
52047;SDS011;46904;49.438;8.752;2022-10-31T08:42:27;9.02;;;3.88;;
52047;SDS011;46904;49.438;8.752;2022-10-31T08:45:18;7.95;;;3.67;;
52047;SDS011;46904;49.438;8.752;2022-10-31T08:48:11;5.28;;;3.63;;
52047;SDS011;46904;49.438;8.752;2022-10-31T08:51:03;8.13;;;3.55;;
52047;SDS011;46904;49.438;8.752;2022-10-31T08:53:53;6.40;;;3.47;;
52047;SDS011;46904;49.438;8.752;2022-10-31T08:56:43;8.27;;;3.90;;
52047;SDS011;46904;49.438;8.752;2022-10-31T08:59:34;7.43;;;3.72;;
52047;SDS011;46904;49.438;8.752;2022-10-31T09:02:24;6.03;;;3.67;;
52047;SDS011;46904;49.438;8.752;2022-10-31T09:05:15;4.72;;;3.53;;
52047;SDS011;46904;49.438;8.752;2022-10-31T09:08:06;7.93;;;3.80;;
52047;SDS011;46904;49.438;8.752;2022-10-31T09:10:57;7.22;;;4.00;;
52047;SDS011;46904;49.438;8.752;2022-10-31T09:13:47;4.50;;;3.85;;
52047;SDS011;46904;49.438;8.752;2022-10-31T09:16:38;4.38;;;3.63;;
52047;SDS011;46904;49.438;8.752;2022-10-31T09:19:28;3.88;;;3.47;;
52047;SDS011;46904;49.438;8.752;2022-10-31T09:22:19;7.25;;;3.75;;
52047;SDS011;46904;49.438;8.752;2022-10-31T09:25:09;5.78;;;3.20;;
52047;SDS011;46904;49.438;8.752;2022-10-31T09:28:00;5.05;;;3.63;;
52047;SDS011;46904;49.438;8.752;2022-10-31T09:30:51;4.53;;;2.80;;
52047;SDS011;46904;49.438;8.752;2022-10-31T09:33:41;4.53;;;3.20;;
52047;SDS011;46904;49.438;8.752;2022-10-31T09:36:31;4.43;;;3.22;;
52047;SDS011;46904;49.438;8.752;2022-10-31T09:39:22;4.85;;;3.38;;
52047;SDS011;46904;49.438;8.752;2022-10-31T09:50:56;14.23;;;3.45;;
52047;SDS011;46904;49.438;8.752;2022-10-31T09:59:49;5.30;;;2.50;;
52047;SDS011;46904;49.438;8.752;2022-10-31T10:02:41;5.32;;;2.33;;
52047;SDS011;46904;49.438;8.752;2022-10-31T10:05:43;5.68;;;3.08;;
52047;SDS011;46904;49.438;8.752;2022-10-31T10:08:36;5.22;;;2.42;;
52047;SDS011;46904;49.438;8.752;2022-10-31T10:15:16;5.25;;;2.50;;
52047;SDS011;46904;49.438;8.752;2022-10-31T10:17:54;4.05;;;2.28;;
52047;SDS011;46904;49.438;8.752;2022-10-31T10:33:22;6.43;;;3.00;;
52047;SDS011;46904;49.438;8.752;2022-10-31T10:36:18;5.50;;;2.90;;
52047;SDS011;46904;49.438;8.752;2022-10-31T10:42:01;5.32;;;3.20;;
52047;SDS011;46904;49.438;8.752;2022-10-31T10:44:51;4.47;;;2.63;;
52047;SDS011;46904;49.438;8.752;2022-10-31T10:47:50;3.92;;;3.10;;
52047;SDS011;46904;49.438;8.752;2022-10-31T10:50:48;4.80;;;2.60;;
52047;SDS011;46904;49.438;8.752;2022-10-31T10:59:25;5.88;;;3.53;;
52047;SDS011;46904;49.438;8.752;2022-10-31T11:02:22;4.55;;;2.78;;
52047;SDS011;46904;49.438;8.752;2022-10-31T11:05:15;5.10;;;3.05;;
52047;SDS011;46904;49.438;8.752;2022-10-31T11:08:08;4.78;;;2.90;;
52047;SDS011;46904;49.438;8.752;2022-10-31T11:11:03;3.40;;;2.75;;
52047;SDS011;46904;49.438;8.752;2022-10-31T11:13:57;5.32;;;3.05;;
52047;SDS011;46904;49.438;8.752;2022-10-31T11:16:49;3.95;;;2.47;;
52047;SDS011;46904;49.438;8.752;2022-10-31T11:19:40;5.60;;;2.95;;
52047;SDS011;46904;49.438;8.752;2022-10-31T11:22:30;4.35;;;2.83;;
52047;SDS011;46904;49.438;8.752;2022-10-31T11:25:24;8.30;;;3.05;;
52047;SDS011;46904;49.438;8.752;2022-10-31T11:28:14;3.28;;;2.75;;
52047;SDS011;46904;49.438;8.752;2022-10-31T11:31:05;3.33;;;2.65;;
52047;SDS011;46904;49.438;8.752;2022-10-31T11:34:07;3.70;;;2.70;;
52047;SDS011;46904;49.438;8.752;2022-10-31T11:37:13;4.38;;;2.80;;
52047;SDS011;46904;49.438;8.752;2022-10-31T11:40:05;3.97;;;2.78;;
52047;SDS011;46904;49.438;8.752;2022-10-31T11:42:56;6.00;;;3.53;;
52047;SDS011;46904;49.438;8.752;2022-10-31T11:45:48;7.78;;;3.90;;
52047;SDS011;46904;49.438;8.752;2022-10-31T11:48:38;4.57;;;2.85;;
52047;SDS011;46904;49.438;8.752;2022-10-31T11:51:30;6.47;;;3.33;;
52047;SDS011;46904;49.438;8.752;2022-10-31T11:54:22;5.45;;;3.33;;
52047;SDS011;46904;49.438;8.752;2022-10-31T11:57:22;6.38;;;2.92;;
52047;SDS011;46904;49.438;8.752;2022-10-31T12:06:12;6.68;;;2.75;;
52047;SDS011;46904;49.438;8.752;2022-10-31T12:21:27;5.40;;;4.15;;
52047;SDS011;46904;49.438;8.752;2022-10-31T12:36:49;7.30;;;3.55;;
52047;SDS011;46904;49.438;8.752;2022-10-31T12:51:40;7.75;;;3.47;;
52047;SDS011;46904;49.438;8.752;2022-10-31T12:57:45;4.22;;;3.63;;
52047;SDS011;46904;49.438;8.752;2022-10-31T13:00:38;6.93;;;3.03;;
52047;SDS011;46904;49.438;8.752;2022-10-31T13:03:42;4.55;;;3.30;;
52047;SDS011;46904;49.438;8.752;2022-10-31T13:06:35;5.30;;;3.33;;
52047;SDS011;46904;49.438;8.752;2022-10-31T13:09:30;6.32;;;2.90;;
52047;SDS011;46904;49.438;8.752;2022-10-31T13:12:23;5.82;;;3.92;;
52047;SDS011;46904;49.438;8.752;2022-10-31T13:15:16;5.13;;;3.80;;
52047;SDS011;46904;49.438;8.752;2022-10-31T13:18:10;6.78;;;3.80;;
52047;SDS011;46904;49.438;8.752;2022-10-31T13:21:03;7.65;;;3.85;;
52047;SDS011;46904;49.438;8.752;2022-10-31T13:23:55;6.72;;;3.15;;
52047;SDS011;46904;49.438;8.752;2022-10-31T13:26:50;5.68;;;3.20;;
52047;SDS011;46904;49.438;8.752;2022-10-31T13:29:56;7.60;;;3.63;;
52047;SDS011;46904;49.438;8.752;2022-10-31T13:41:49;5.68;;;3.47;;
52047;SDS011;46904;49.438;8.752;2022-10-31T13:44:40;8.32;;;4.15;;
52047;SDS011;46904;49.438;8.752;2022-10-31T13:47:31;8.57;;;4.18;;
52047;SDS011;46904;49.438;8.752;2022-10-31T13:50:22;11.18;;;4.80;;
52047;SDS011;46904;49.438;8.752;2022-10-31T13:59:04;3.47;;;2.78;;
52047;SDS011;46904;49.438;8.752;2022-10-31T14:01:56;5.57;;;3.08;;
52047;SDS011;46904;49.438;8.752;2022-10-31T14:04:51;4.07;;;3.03;;
52047;SDS011;46904;49.438;8.752;2022-10-31T14:07:42;4.68;;;2.88;;
52047;SDS011;46904;49.438;8.752;2022-10-31T14:10:38;6.22;;;2.83;;
52047;SDS011;46904;49.438;8.752;2022-10-31T14:13:34;4.30;;;2.90;;
52047;SDS011;46904;49.438;8.752;2022-10-31T14:16:27;4.63;;;2.70;;
52047;SDS011;46904;49.438;8.752;2022-10-31T14:19:18;3.08;;;2.40;;
52047;SDS011;46904;49.438;8.752;2022-10-31T14:22:23;4.63;;;2.67;;
52047;SDS011;46904;49.438;8.752;2022-10-31T14:28:19;3.97;;;2.72;;
52047;SDS011;46904;49.438;8.752;2022-10-31T14:52:23;5.72;;;2.70;;
52047;SDS011;46904;49.438;8.752;2022-10-31T14:55:14;3.67;;;2.17;;
52047;SDS011;46904;49.438;8.752;2022-10-31T14:58:06;5.53;;;2.47;;
52047;SDS011;46904;49.438;8.752;2022-10-31T15:00:57;6.97;;;3.10;;
52047;SDS011;46904;49.438;8.752;2022-10-31T15:03:48;6.18;;;2.60;;
52047;SDS011;46904;49.438;8.752;2022-10-31T15:06:42;4.00;;;2.75;;
52047;SDS011;46904;49.438;8.752;2022-10-31T15:09:35;9.68;;;5.32;;
52047;SDS011;46904;49.438;8.752;2022-10-31T15:12:30;6.63;;;3.90;;
52047;SDS011;46904;49.438;8.752;2022-10-31T15:15:22;6.20;;;2.63;;
52047;SDS011;46904;49.438;8.752;2022-10-31T15:18:14;4.82;;;2.60;;
52047;SDS011;46904;49.438;8.752;2022-10-31T15:21:06;5.05;;;2.80;;
52047;SDS011;46904;49.438;8.752;2022-10-31T15:23:57;8.63;;;3.10;;
52047;SDS011;46904;49.438;8.752;2022-10-31T15:26:49;4.47;;;2.92;;
52047;SDS011;46904;49.438;8.752;2022-10-31T15:29:47;4.85;;;2.85;;
52047;SDS011;46904;49.438;8.752;2022-10-31T15:32:38;10.43;;;3.05;;
52047;SDS011;46904;49.438;8.752;2022-10-31T15:35:34;4.97;;;3.08;;
52047;SDS011;46904;49.438;8.752;2022-10-31T15:38:24;3.45;;;3.10;;
52047;SDS011;46904;49.438;8.752;2022-10-31T15:44:33;5.68;;;3.30;;
52047;SDS011;46904;49.438;8.752;2022-10-31T15:47:24;6.35;;;3.38;;
52047;SDS011;46904;49.438;8.752;2022-10-31T15:50:19;4.82;;;2.90;;
52047;SDS011;46904;49.438;8.752;2022-10-31T15:53:16;24.80;;;4.57;;
52047;SDS011;46904;49.438;8.752;2022-10-31T15:56:07;7.70;;;4.28;;
52047;SDS011;46904;49.438;8.752;2022-10-31T15:58:59;8.13;;;4.20;;
52047;SDS011;46904;49.438;8.752;2022-10-31T16:02:01;7.47;;;4.63;;
52047;SDS011;46904;49.438;8.752;2022-10-31T16:04:59;5.70;;;4.28;;
52047;SDS011;46904;49.438;8.752;2022-10-31T16:07:51;8.18;;;3.53;;
52047;SDS011;46904;49.438;8.752;2022-10-31T16:10:42;5.25;;;3.70;;
52047;SDS011;46904;49.438;8.752;2022-10-31T16:13:34;4.82;;;2.75;;
52047;SDS011;46904;49.438;8.752;2022-10-31T16:16:25;8.73;;;4.28;;
52047;SDS011;46904;49.438;8.752;2022-10-31T16:19:20;3.72;;;3.15;;
52047;SDS011;46904;49.438;8.752;2022-10-31T16:22:11;7.10;;;3.75;;
52047;SDS011;46904;49.438;8.752;2022-10-31T16:25:04;7.93;;;3.20;;
52047;SDS011;46904;49.438;8.752;2022-10-31T16:27:59;5.82;;;3.40;;
52047;SDS011;46904;49.438;8.752;2022-10-31T16:30:55;5.00;;;3.15;;
52047;SDS011;46904;49.438;8.752;2022-10-31T16:33:47;9.88;;;3.88;;
52047;SDS011;46904;49.438;8.752;2022-10-31T16:36:37;12.13;;;3.75;;
52047;SDS011;46904;49.438;8.752;2022-10-31T16:39:27;4.65;;;3.28;;
52047;SDS011;46904;49.438;8.752;2022-10-31T16:42:17;6.68;;;4.18;;
52047;SDS011;46904;49.438;8.752;2022-10-31T16:45:13;7.63;;;3.25;;
52047;SDS011;46904;49.438;8.752;2022-10-31T16:48:05;5.57;;;2.78;;
52047;SDS011;46904;49.438;8.752;2022-10-31T16:50:56;7.68;;;3.35;;
52047;SDS011;46904;49.438;8.752;2022-10-31T16:53:46;6.90;;;3.60;;
52047;SDS011;46904;49.438;8.752;2022-10-31T16:56:36;9.43;;;3.15;;
52047;SDS011;46904;49.438;8.752;2022-10-31T16:59:27;8.95;;;3.65;;
52047;SDS011;46904;49.438;8.752;2022-10-31T17:02:18;5.50;;;3.53;;
52047;SDS011;46904;49.438;8.752;2022-10-31T17:05:11;6.35;;;3.92;;
52047;SDS011;46904;49.438;8.752;2022-10-31T17:08:01;4.90;;;3.55;;
52047;SDS011;46904;49.438;8.752;2022-10-31T17:10:53;8.20;;;5.00;;
52047;SDS011;46904;49.438;8.752;2022-10-31T17:13:44;8.38;;;4.18;;
52047;SDS011;46904;49.438;8.752;2022-10-31T17:16:35;5.20;;;4.53;;
52047;SDS011;46904;49.438;8.752;2022-10-31T17:19:26;12.10;;;4.25;;
52047;SDS011;46904;49.438;8.752;2022-10-31T17:22:16;7.55;;;4.60;;
52047;SDS011;46904;49.438;8.752;2022-10-31T17:25:08;7.00;;;4.70;;
52047;SDS011;46904;49.438;8.752;2022-10-31T17:28:00;11.55;;;4.35;;
52047;SDS011;46904;49.438;8.752;2022-10-31T17:30:52;8.82;;;4.07;;
52047;SDS011;46904;49.438;8.752;2022-10-31T17:33:43;5.18;;;3.53;;
52047;SDS011;46904;49.438;8.752;2022-10-31T17:36:34;10.40;;;5.45;;
52047;SDS011;46904;49.438;8.752;2022-10-31T17:39:25;6.97;;;4.97;;
52047;SDS011;46904;49.438;8.752;2022-10-31T17:42:15;7.53;;;4.32;;
52047;SDS011;46904;49.438;8.752;2022-10-31T17:45:06;5.63;;;3.95;;
52047;SDS011;46904;49.438;8.752;2022-10-31T17:47:57;7.45;;;4.47;;
52047;SDS011;46904;49.438;8.752;2022-10-31T17:50:47;5.20;;;3.30;;
52047;SDS011;46904;49.438;8.752;2022-10-31T17:53:37;5.07;;;3.60;;
52047;SDS011;46904;49.438;8.752;2022-10-31T17:56:28;4.50;;;2.83;;
52047;SDS011;46904;49.438;8.752;2022-10-31T17:59:19;4.30;;;3.20;;
52047;SDS011;46904;49.438;8.752;2022-10-31T18:02:10;6.45;;;3.30;;
52047;SDS011;46904;49.438;8.752;2022-10-31T18:05:01;8.23;;;3.90;;
52047;SDS011;46904;49.438;8.752;2022-10-31T18:07:52;4.85;;;3.35;;
52047;SDS011;46904;49.438;8.752;2022-10-31T18:10:42;5.88;;;3.42;;
52047;SDS011;46904;49.438;8.752;2022-10-31T18:13:33;7.03;;;3.47;;
52047;SDS011;46904;49.438;8.752;2022-10-31T18:16:24;6.80;;;3.58;;
52047;SDS011;46904;49.438;8.752;2022-10-31T18:19:15;7.55;;;3.40;;
52047;SDS011;46904;49.438;8.752;2022-10-31T18:22:06;8.27;;;3.47;;
52047;SDS011;46904;49.438;8.752;2022-10-31T18:24:56;5.20;;;3.20;;
52047;SDS011;46904;49.438;8.752;2022-10-31T18:27:47;6.68;;;3.97;;
52047;SDS011;46904;49.438;8.752;2022-10-31T18:30:38;6.13;;;3.50;;
52047;SDS011;46904;49.438;8.752;2022-10-31T18:33:29;8.82;;;3.28;;
52047;SDS011;46904;49.438;8.752;2022-10-31T18:36:20;6.72;;;3.85;;
52047;SDS011;46904;49.438;8.752;2022-10-31T18:39:10;8.80;;;4.55;;
52047;SDS011;46904;49.438;8.752;2022-10-31T18:42:01;5.88;;;4.38;;
52047;SDS011;46904;49.438;8.752;2022-10-31T18:44:51;7.03;;;5.38;;
52047;SDS011;46904;49.438;8.752;2022-10-31T18:47:42;7.13;;;4.55;;
52047;SDS011;46904;49.438;8.752;2022-10-31T18:50:33;8.38;;;5.10;;
52047;SDS011;46904;49.438;8.752;2022-10-31T18:53:24;9.48;;;6.28;;
52047;SDS011;46904;49.438;8.752;2022-10-31T18:56:14;12.48;;;6.10;;
52047;SDS011;46904;49.438;8.752;2022-10-31T18:59:05;9.60;;;6.50;;
52047;SDS011;46904;49.438;8.752;2022-10-31T19:01:55;11.80;;;6.70;;
52047;SDS011;46904;49.438;8.752;2022-10-31T19:04:45;10.73;;;5.18;;
52047;SDS011;46904;49.438;8.752;2022-10-31T19:07:35;9.23;;;4.05;;
52047;SDS011;46904;49.438;8.752;2022-10-31T19:10:25;6.63;;;4.43;;
52047;SDS011;46904;49.438;8.752;2022-10-31T19:13:16;8.60;;;4.15;;
52047;SDS011;46904;49.438;8.752;2022-10-31T19:16:11;8.27;;;4.40;;
52047;SDS011;46904;49.438;8.752;2022-10-31T19:19:02;6.13;;;4.28;;
52047;SDS011;46904;49.438;8.752;2022-10-31T19:21:53;7.10;;;4.57;;
52047;SDS011;46904;49.438;8.752;2022-10-31T19:24:44;8.60;;;5.18;;
52047;SDS011;46904;49.438;8.752;2022-10-31T19:27:35;8.70;;;4.65;;
52047;SDS011;46904;49.438;8.752;2022-10-31T19:30:26;7.75;;;4.22;;
52047;SDS011;46904;49.438;8.752;2022-10-31T19:33:17;7.55;;;4.50;;
52047;SDS011;46904;49.438;8.752;2022-10-31T19:36:09;10.68;;;5.10;;
52047;SDS011;46904;49.438;8.752;2022-10-31T19:39:00;5.57;;;4.68;;
52047;SDS011;46904;49.438;8.752;2022-10-31T19:41:50;8.60;;;4.50;;
52047;SDS011;46904;49.438;8.752;2022-10-31T19:44:40;7.20;;;4.80;;
52047;SDS011;46904;49.438;8.752;2022-10-31T19:47:31;8.07;;;5.05;;
52047;SDS011;46904;49.438;8.752;2022-10-31T19:50:22;10.27;;;5.50;;
52047;SDS011;46904;49.438;8.752;2022-10-31T19:53:12;8.45;;;4.75;;
52047;SDS011;46904;49.438;8.752;2022-10-31T19:56:02;11.65;;;5.47;;